createdAt,value
2023-03-07T00:00:45.236Z,99199.56
2023-03-07T00:03:15.400Z,99206.25
2023-03-07T00:05:43.526Z,99197.00
2023-03-07T00:08:12.134Z,99199.63
2023-03-07T00:10:40.068Z,99206.38
2023-03-07T00:13:08.855Z,99216.25
2023-03-07T00:15:38.951Z,99192.19
2023-03-07T00:18:07.390Z,99192.03
2023-03-07T00:20:36.519Z,99198.09
2023-03-07T00:23:04.884Z,99193.00
2023-03-07T00:25:32.586Z,99194.34
2023-03-07T00:28:00.357Z,99194.63
2023-03-07T00:30:28.138Z,99183.22
2023-03-07T00:32:55.897Z,99184.75
2023-03-07T00:35:23.682Z,99180.69
2023-03-07T00:37:52.858Z,99184.75
2023-03-07T00:40:20.735Z,99172.63
2023-03-07T00:42:48.526Z,99179.94
2023-03-07T00:45:16.531Z,99177.88
2023-03-07T00:47:44.298Z,99179.41
2023-03-07T00:50:13.822Z,99181.44
2023-03-07T00:52:41.634Z,99180.34
2023-03-07T00:55:11.652Z,99171.81
2023-03-07T00:57:40.694Z,99172.09
2023-03-07T01:00:10.837Z,99158.69
2023-03-07T01:02:38.657Z,99159.16
2023-03-07T01:05:07.392Z,99160.53
2023-03-07T01:07:36.090Z,99159.44
2023-03-07T01:10:03.956Z,99164.66
2023-03-07T01:12:33.197Z,99161.09
2023-03-07T01:15:01.123Z,99158.59
2023-03-07T01:17:29.041Z,99159.69
2023-03-07T01:19:56.771Z,99152.50
2023-03-07T01:22:24.949Z,99162.59
2023-03-07T01:24:53.022Z,99149.22
2023-03-07T01:27:20.925Z,99145.25
2023-03-07T01:29:50.772Z,99148.16
2023-03-07T01:32:18.737Z,99138.78
2023-03-07T01:34:46.485Z,99140.84
2023-03-07T01:37:14.373Z,99145.13
2023-03-07T01:39:43.033Z,99144.00
2023-03-07T01:42:14.828Z,99141.66
2023-03-07T01:45:03.806Z,99133.81
2023-03-07T01:47:49.491Z,99134.31
2023-03-07T01:50:18.768Z,99152.47
2023-03-07T01:52:50.661Z,99138.16
2023-03-07T01:55:22.433Z,99126.34
2023-03-07T01:57:55.206Z,99119.97
2023-03-07T02:00:29.770Z,99118.75
2023-03-07T02:03:07.344Z,99117.22
2023-03-07T02:05:40.536Z,99100.31
2023-03-07T02:08:10.918Z,99107.03
2023-03-07T02:10:39.694Z,99106.75
2023-03-07T02:13:07.729Z,99105.91
2023-03-07T02:15:37.579Z,99097.56
2023-03-07T02:18:06.545Z,99103.34
2023-03-07T02:20:41.372Z,99095.38
2023-03-07T02:23:16.496Z,99089.19
2023-03-07T02:25:48.875Z,99089.00
2023-03-07T02:28:19.190Z,99100.59
2023-03-07T02:30:55.686Z,99102.34
2023-03-07T02:33:25.113Z,99084.75
2023-03-07T02:36:03.974Z,99082.97
2023-03-07T02:38:36.547Z,99074.88
2023-03-07T02:41:05.846Z,99077.31
2023-03-07T02:43:37.004Z,99082.69
2023-03-07T02:46:05.770Z,99074.16
2023-03-07T02:48:33.615Z,99068.81
2023-03-07T02:51:01.404Z,99082.84
2023-03-07T02:53:29.340Z,99056.00
2023-03-07T02:55:57.447Z,99060.50
2023-03-07T02:58:26.008Z,99059.69
2023-03-07T03:00:55.102Z,99063.81
2023-03-07T03:03:22.931Z,99061.91
2023-03-07T03:05:50.656Z,99058.72
2023-03-07T03:08:20.155Z,99058.59
2023-03-07T03:10:52.618Z,99050.34
2023-03-07T03:13:21.254Z,99058.06
2023-03-07T03:15:49.531Z,99056.41
2023-03-07T03:18:18.671Z,99046.91
2023-03-07T03:20:46.447Z,99054.06
2023-03-07T03:23:14.318Z,99049.25
2023-03-07T03:25:42.138Z,99046.13
2023-03-07T03:28:10.281Z,99053.28
2023-03-07T03:30:38.017Z,99046.50
2023-03-07T03:33:06.025Z,99042.38
2023-03-07T03:35:38.395Z,99040.72
2023-03-07T03:38:06.597Z,99037.16
2023-03-07T03:40:34.396Z,99034.16
2023-03-07T03:43:02.351Z,99050.91
2023-03-07T03:45:30.107Z,99039.75
2023-03-07T03:47:57.825Z,99037.97
2023-03-07T03:50:25.717Z,99037.56
2023-03-07T03:52:54.825Z,99026.16
2023-03-07T03:55:22.584Z,99033.03
2023-03-07T03:57:50.401Z,99026.97
2023-03-07T04:00:21.071Z,99028.44
2023-03-07T04:02:49.333Z,99031.06
2023-03-07T04:05:19.171Z,99035.19
2023-03-07T04:07:46.897Z,99018.44
2023-03-07T04:10:16.503Z,99033.16
2023-03-07T04:12:44.699Z,99015.13
2023-03-07T04:15:13.143Z,99006.31
2023-03-07T04:17:41.298Z,99009.19
2023-03-07T04:20:17.346Z,99001.91
2023-03-07T04:22:46.626Z,99009.31
2023-03-07T04:25:15.922Z,98982.34
2023-03-07T04:27:43.872Z,98987.06
2023-03-07T04:30:12.886Z,98987.06
2023-03-07T04:32:42.475Z,98983.50
2023-03-07T04:35:10.973Z,98998.88
2023-03-07T04:37:38.820Z,98982.38
2023-03-07T04:40:07.725Z,98980.06
2023-03-07T04:42:37.125Z,98975.66
2023-03-07T04:45:05.594Z,98971.63
2023-03-07T04:47:33.359Z,98970.41
2023-03-07T04:50:01.190Z,98967.13
2023-03-07T04:52:30.856Z,98972.06
2023-03-07T04:54:58.655Z,98956.47
2023-03-07T04:57:26.761Z,98968.31
2023-03-07T04:59:56.282Z,98968.06
2023-03-07T05:02:24.737Z,98954.88
2023-03-07T05:04:53.140Z,98961.47
2023-03-07T05:07:21.255Z,98965.72
2023-03-07T05:09:50.605Z,98951.84
2023-03-07T05:12:18.426Z,98955.41
2023-03-07T05:14:46.325Z,98945.25
2023-03-07T05:17:15.446Z,98946.91
2023-03-07T05:19:43.867Z,98957.63
2023-03-07T05:22:11.903Z,98941.38
2023-03-07T05:24:39.706Z,98941.38
2023-03-07T05:27:07.781Z,98941.53
2023-03-07T05:29:35.615Z,98936.44
2023-03-07T05:32:03.950Z,98938.63
2023-03-07T05:34:33.357Z,98938.63
2023-03-07T05:37:01.948Z,98937.81
2023-03-07T05:39:29.721Z,98929.97
2023-03-07T05:41:57.700Z,98933.25
2023-03-07T05:44:25.776Z,98941.22
2023-03-07T05:46:53.524Z,98936.00
2023-03-07T05:49:21.506Z,98943.41
2023-03-07T05:51:50.653Z,98932.94
2023-03-07T05:54:18.452Z,98936.69
2023-03-07T05:56:46.311Z,98936.56
2023-03-07T05:59:15.597Z,98934.22
2023-03-07T06:01:45.232Z,98923.63
2023-03-07T06:04:13.554Z,98937.41
2023-03-07T06:06:41.283Z,98930.38
2023-03-07T06:09:11.744Z,98934.78
2023-03-07T06:11:40.241Z,98930.38
2023-03-07T06:14:07.945Z,98927.91
2023-03-07T06:16:35.649Z,98924.88
2023-03-07T06:19:04.663Z,98940.84
2023-03-07T06:21:32.813Z,98938.34
2023-03-07T06:24:00.520Z,98923.06
2023-03-07T06:26:29.684Z,98928.03
2023-03-07T06:28:57.423Z,98925.97
2023-03-07T06:31:27.016Z,98917.19
2023-03-07T06:33:57.491Z,98919.94
2023-03-07T06:36:26.440Z,98918.53
2023-03-07T06:38:58.037Z,98925.84
2023-03-07T06:41:26.444Z,98929.13
2023-03-07T06:43:57.792Z,98920.75
2023-03-07T06:46:28.796Z,98913.56
2023-03-07T06:48:57.598Z,98913.06
2023-03-07T06:51:26.308Z,98914.16
2023-03-07T06:53:57.769Z,98907.81
2023-03-07T06:56:26.085Z,98910.88
2023-03-07T06:58:53.853Z,98905.38
2023-03-07T07:01:23.982Z,98903.16
2023-03-07T07:03:53.997Z,98912.66
2023-03-07T07:06:21.816Z,98907.28
2023-03-07T07:08:50.404Z,98903.59
2023-03-07T07:11:18.133Z,98899.31
2023-03-07T07:13:46.504Z,98899.59
2023-03-07T07:16:19.464Z,98899.06
2023-03-07T07:18:52.550Z,98899.59
2023-03-07T07:21:20.904Z,98899.06
2023-03-07T07:23:49.016Z,98906.78
2023-03-07T07:26:16.876Z,98900.53
2023-03-07T07:28:44.631Z,98899.44
2023-03-07T07:31:13.680Z,98905.13
2023-03-07T07:33:41.507Z,98907.88
2023-03-07T07:36:11.097Z,98898.22
2023-03-07T07:38:39.832Z,98894.91
2023-03-07T07:41:07.557Z,98893.13
2023-03-07T07:43:35.553Z,98890.53
2023-03-07T07:46:19.359Z,98891.75
2023-03-07T07:48:47.907Z,98891.06
2023-03-07T07:51:17.422Z,98895.22
2023-03-07T07:53:45.481Z,98896.84
2023-03-07T07:56:13.510Z,98895.47
2023-03-07T07:58:41.650Z,98903.47
2023-03-07T08:01:20.824Z,98888.88
2023-03-07T08:03:49.419Z,98890.94
2023-03-07T08:06:21.274Z,98900.69
2023-03-07T08:08:49.134Z,98899.59
2023-03-07T08:11:17.731Z,98900.03
2023-03-07T08:13:45.762Z,98895.22
2023-03-07T08:16:15.812Z,98893.28
2023-03-07T08:18:45.223Z,98905.94
2023-03-07T08:21:12.975Z,98899.22
2023-03-07T08:23:42.041Z,98900.28
2023-03-07T08:26:11.142Z,98892.72
2023-03-07T08:28:39.146Z,98895.06
2023-03-07T08:31:10.746Z,98903.75
2023-03-07T08:33:38.719Z,98907.59
2023-03-07T08:36:07.484Z,98898.78
2023-03-07T08:38:35.608Z,98900.69
2023-03-07T08:41:06.402Z,98893.28
2023-03-07T08:43:36.222Z,98900.16
2023-03-07T08:46:05.320Z,98902.09
2023-03-07T08:48:33.442Z,98894.81
2023-03-07T08:51:07.293Z,98891.38
2023-03-07T08:53:35.454Z,98892.06
2023-03-07T08:56:08.874Z,98890.41
2023-03-07T08:58:37.540Z,98886.84
2023-03-07T09:01:06.945Z,98890.69
2023-03-07T09:03:35.918Z,98884.09
2023-03-07T09:06:04.098Z,98884.34
2023-03-07T09:08:32.040Z,98887.53
2023-03-07T09:11:00.919Z,98885.31
2023-03-07T09:13:30.177Z,98889.19
2023-03-07T09:15:58.144Z,98906.78
2023-03-07T09:18:25.828Z,98878.56
2023-03-07T09:20:53.532Z,98893.03
2023-03-07T09:23:21.359Z,98888.63
2023-03-07T09:25:49.065Z,98895.78
2023-03-07T09:28:16.765Z,98896.06
2023-03-07T09:30:45.874Z,98908.97
2023-03-07T09:33:13.774Z,98911.09
2023-03-07T09:35:41.529Z,98916.00
2023-03-07T09:38:10.550Z,98884.47
2023-03-07T09:40:38.774Z,98884.47
2023-03-07T09:43:12.468Z,98890.84
2023-03-07T09:45:52.498Z,98883.41
2023-03-07T09:48:47.924Z,98906.25
2023-03-07T09:51:19.856Z,98910.66
2023-03-07T09:53:50.743Z,98881.19
2023-03-07T09:56:26.288Z,98889.72
2023-03-07T09:59:06.558Z,98890.56
2023-03-07T10:01:43.518Z,98878.41
2023-03-07T10:04:18.698Z,98883.09
2023-03-07T10:06:53.797Z,98872.63
2023-03-07T10:09:24.606Z,98887.50
2023-03-07T10:12:08.508Z,98875.38
2023-03-07T10:14:51.437Z,98874.41
2023-03-07T10:17:30.948Z,98881.88
2023-03-07T10:20:08.422Z,98868.09
2023-03-07T10:22:42.802Z,98888.63
2023-03-07T10:25:19.613Z,98892.47
2023-03-07T10:27:48.907Z,98873.19
2023-03-07T10:30:20.736Z,98881.72
2023-03-07T10:32:54.375Z,98873.75
2023-03-07T10:35:24.442Z,98879.81
2023-03-07T10:37:54.720Z,98879.53
2023-03-07T10:40:29.805Z,98887.50
2023-03-07T10:42:59.459Z,98877.31
2023-03-07T10:45:29.998Z,98898.00
2023-03-07T10:48:02.142Z,98878.72
2023-03-07T10:50:39.321Z,98881.03
2023-03-07T10:53:20.120Z,98880.50
2023-03-07T10:55:47.873Z,98874.97
2023-03-07T10:58:19.942Z,98873.72
2023-03-07T11:01:13.204Z,98870.56
2023-03-07T11:03:53.444Z,98880.91
2023-03-07T11:06:35.452Z,98884.75
2023-03-07T11:09:23.256Z,98881.31
2023-03-07T11:11:54.959Z,98893.59
2023-03-07T11:14:23.494Z,98890.78
2023-03-07T11:16:53.429Z,98904.97
2023-03-07T11:19:45.248Z,98901.81
2023-03-07T11:22:22.857Z,98902.34
2023-03-07T11:25:00.798Z,98914.88
2023-03-07T11:27:35.679Z,98898.22
2023-03-07T11:30:08.655Z,98904.16
2023-03-07T11:32:41.166Z,98901.53
2023-03-07T11:35:16.704Z,98902.22
2023-03-07T11:37:52.616Z,98897.69
2023-03-07T11:40:24.756Z,98897.41
2023-03-07T11:43:08.852Z,98899.34
2023-03-07T11:45:43.334Z,98892.72
2023-03-07T11:48:28.301Z,98904.56
2023-03-07T11:50:58.395Z,98901.81
2023-03-07T11:53:35.179Z,98901.97
2023-03-07T11:56:22.503Z,98894.38
2023-03-07T11:59:05.773Z,98897.41
2023-03-07T12:01:40.199Z,98893.28
2023-03-07T12:04:52.671Z,98904.72
2023-03-07T12:07:38.401Z,98896.44
2023-03-07T12:10:13.622Z,98899.47
2023-03-07T12:12:56.961Z,98896.44
2023-03-07T12:15:39.824Z,98895.47
2023-03-07T12:18:27.640Z,98893.97
2023-03-07T12:21:07.911Z,98892.31
2023-03-07T12:23:43.385Z,98893.00
2023-03-07T12:26:18.352Z,98894.91
2023-03-07T12:28:51.346Z,98894.09
2023-03-07T12:31:24.124Z,98889.69
2023-03-07T12:33:58.965Z,98888.03
2023-03-07T12:36:34.098Z,98883.09
2023-03-07T12:39:17.213Z,98886.94
2023-03-07T12:41:55.668Z,98888.47
2023-03-07T12:44:32.273Z,98889.16
2023-03-07T12:47:07.867Z,98890.25
2023-03-07T12:49:49.829Z,98883.63
2023-03-07T12:52:29.956Z,98882.66
2023-03-07T12:55:02.520Z,98888.31
2023-03-07T12:57:35.412Z,98893.13
2023-03-07T13:00:07.869Z,98887.06
2023-03-07T13:02:42.750Z,98890.09
2023-03-07T13:05:19.951Z,98882.94
2023-03-07T13:07:48.719Z,98889.94
2023-03-07T13:10:19.978Z,98883.63
2023-03-07T13:12:48.408Z,98888.03
2023-03-07T13:15:49.813Z,98883.91
2023-03-07T13:18:29.329Z,98886.50
2023-03-07T13:21:12.714Z,98875.22
2023-03-07T13:23:40.741Z,98881.28
2023-03-07T13:26:14.505Z,98887.47
2023-03-07T13:28:48.171Z,98885.81
2023-03-07T13:31:40.609Z,98886.91
2023-03-07T13:34:41.512Z,98883.63
2023-03-07T13:37:49.022Z,98885.13
2023-03-07T13:40:46.384Z,98872.88
2023-03-07T13:43:51.078Z,98880.31
2023-03-07T13:46:49.174Z,98886.09
2023-03-07T13:49:38.784Z,98886.91
2023-03-07T13:52:45.155Z,98892.31
2023-03-07T13:55:25.888Z,98900.81
2023-03-07T13:57:56.557Z,98895.19
2023-03-07T14:00:38.407Z,98890.91
2023-03-07T14:03:26.473Z,98880.84
2023-03-07T14:05:56.615Z,98884.16
2023-03-07T14:08:27.579Z,98892.69
2023-03-07T14:10:55.558Z,98902.34
2023-03-07T14:13:49.355Z,98883.88
2023-03-07T14:16:32.188Z,98905.47
2023-03-07T14:19:14.005Z,98904.50
2023-03-07T14:21:56.264Z,98911.66
2023-03-07T14:24:39.837Z,98899.16
2023-03-07T14:27:13.877Z,98911.25
2023-03-07T14:29:50.159Z,98911.78
2023-03-07T14:32:27.244Z,98917.97
2023-03-07T14:34:57.307Z,98895.06
2023-03-07T14:37:27.247Z,98926.19
2023-03-07T14:40:11.480Z,98925.38
2023-03-07T14:42:47.137Z,98911.91
2023-03-07T14:45:23.364Z,98925.09
2023-03-07T14:48:23.918Z,98932.13
2023-03-07T14:50:54.239Z,98926.75
2023-03-07T14:53:26.752Z,98936.94
2023-03-07T14:55:56.258Z,98912.97
2023-03-07T14:58:26.583Z,98936.63
2023-03-07T15:01:06.315Z,98928.47
2023-03-07T15:03:34.773Z,98931.38
2023-03-07T15:06:04.559Z,98932.06
2023-03-07T15:08:38.466Z,98939.34
2023-03-07T15:11:11.217Z,98937.00
2023-03-07T15:13:45.749Z,98938.66
2023-03-07T15:16:19.295Z,98941.50
2023-03-07T15:18:52.300Z,98944.38
2023-03-07T15:21:24.052Z,98945.63
2023-03-07T15:23:54.666Z,98950.03
2023-03-07T15:26:24.805Z,98936.19
2023-03-07T15:29:00.392Z,98953.00
2023-03-07T15:31:32.754Z,98935.09
2023-03-07T15:34:23.278Z,98955.19
2023-03-07T15:36:52.624Z,98954.06
2023-03-07T15:39:28.947Z,98948.63
2023-03-07T15:42:01.425Z,98959.78
2023-03-07T15:44:29.227Z,98962.50
2023-03-07T15:46:59.764Z,98951.38
2023-03-07T15:49:35.034Z,98961.56
2023-03-07T15:52:05.289Z,98962.63
2023-03-07T15:54:38.553Z,98964.28
2023-03-07T15:57:15.496Z,98974.03
2023-03-07T15:59:48.668Z,98965.13
2023-03-07T16:02:50.534Z,98968.53
2023-03-07T16:05:35.866Z,98964.25
2023-03-07T16:08:12.143Z,98971.50
2023-03-07T16:10:45.848Z,98972.03
2023-03-07T16:13:17.248Z,98970.38
2023-03-07T16:15:45.128Z,98961.25
2023-03-07T16:18:25.125Z,98961.00
2023-03-07T16:20:52.917Z,98962.09
2023-03-07T16:23:22.212Z,98969.22
2023-03-07T16:25:49.980Z,98972.28
2023-03-07T16:28:17.694Z,98975.00
2023-03-07T16:30:46.652Z,98977.63
2023-03-07T16:33:15.333Z,98966.13
2023-03-07T16:35:43.616Z,98982.97
2023-03-07T16:38:11.392Z,98982.25
2023-03-07T16:40:44.317Z,98980.97
2023-03-07T16:43:31.484Z,98990.34
2023-03-07T16:46:00.078Z,98974.28
2023-03-07T16:48:27.922Z,98993.59
2023-03-07T16:50:55.662Z,98996.06
2023-03-07T16:53:23.420Z,98990.84
2023-03-07T16:55:54.687Z,98986.47
2023-03-07T16:58:28.853Z,98993.47
2023-03-07T17:00:58.882Z,99001.41
2023-03-07T17:03:26.923Z,99010.31
2023-03-07T17:05:54.621Z,99020.75
2023-03-07T17:08:22.371Z,99023.81
2023-03-07T17:10:50.433Z,99023.25
2023-03-07T17:13:19.816Z,99025.97
2023-03-07T17:15:47.803Z,99025.97
2023-03-07T17:18:16.802Z,99025.72
2023-03-07T17:20:44.722Z,99025.97
2023-03-07T17:23:12.966Z,99036.16
2023-03-07T17:25:40.780Z,99027.63
2023-03-07T17:28:13.483Z,99045.91
2023-03-07T17:30:44.997Z,99048.50
2023-03-07T17:33:14.926Z,99040.00
2023-03-07T17:35:43.053Z,99051.94
2023-03-07T17:38:10.821Z,99055.50
2023-03-07T17:40:38.763Z,99048.16
2023-03-07T17:43:06.585Z,99062.75
2023-03-07T17:45:34.406Z,99064.41
2023-03-07T17:48:03.493Z,99056.38
2023-03-07T17:50:31.318Z,99077.91
2023-03-07T17:52:59.294Z,99074.59
2023-03-07T17:55:27.192Z,99081.72
2023-03-07T17:57:55.010Z,99083.16
2023-03-07T18:00:23.642Z,99083.03
2023-03-07T18:02:51.590Z,99083.63
2023-03-07T18:05:26.026Z,99095.47
2023-03-07T18:07:54.290Z,99095.47
2023-03-07T18:10:22.884Z,99094.41
2023-03-07T18:12:53.262Z,99098.81
2023-03-07T18:15:22.780Z,99097.84
2023-03-07T18:17:50.650Z,99108.66
2023-03-07T18:20:25.405Z,99110.06
2023-03-07T18:22:53.310Z,99113.97
2023-03-07T18:25:21.228Z,99109.47
2023-03-07T18:27:49.944Z,99113.03
2023-03-07T18:30:18.438Z,99110.66
2023-03-07T18:32:46.375Z,99117.06
2023-03-07T18:35:15.536Z,99116.38
2023-03-07T18:37:45.385Z,99120.38
2023-03-07T18:40:14.272Z,99126.00
2023-03-07T18:42:42.773Z,99130.63
2023-03-07T18:45:11.774Z,99132.16
2023-03-07T18:47:39.469Z,99133.69
2023-03-07T18:50:09.267Z,99128.84
2023-03-07T18:52:37.036Z,99131.78
2023-03-07T18:55:06.929Z,99126.34
2023-03-07T18:57:34.695Z,99126.34
2023-03-07T19:00:02.679Z,99138.22
2023-03-07T19:02:30.546Z,99138.41
2023-03-07T19:04:58.355Z,99141.38
2023-03-07T19:07:30.480Z,99147.44
2023-03-07T19:09:58.419Z,99150.31
2023-03-07T19:12:27.617Z,99154.41
2023-03-07T19:14:55.376Z,99150.53
2023-03-07T19:17:23.098Z,99155.88
2023-03-07T19:19:53.041Z,99163.59
2023-03-07T19:22:25.867Z,99166.19
2023-03-07T19:24:54.828Z,99174.47
2023-03-07T19:27:22.626Z,99185.16
2023-03-07T19:29:53.302Z,99181.00
2023-03-07T19:32:21.184Z,99179.25
2023-03-07T19:34:50.049Z,99193.25
2023-03-07T19:37:17.905Z,99194.63
2023-03-07T19:39:45.577Z,99202.94
2023-03-07T19:42:13.315Z,99202.13
2023-03-07T19:44:41.238Z,99201.41
2023-03-07T19:47:10.352Z,99209.47
2023-03-07T19:49:38.093Z,99212.31
2023-03-07T19:52:06.221Z,99210.56
2023-03-07T19:54:33.949Z,99220.50
2023-03-07T19:57:01.732Z,99228.31
2023-03-07T19:59:29.490Z,99229.75
2023-03-07T20:01:57.257Z,99231.66
2023-03-07T20:04:26.358Z,99237.81
2023-03-07T20:06:54.080Z,99236.16
2023-03-07T20:09:23.027Z,99240.41
2023-03-07T20:11:50.748Z,99236.16
2023-03-07T20:14:18.550Z,99239.94
2023-03-07T20:16:46.259Z,99242.09
2023-03-07T20:19:14.694Z,99239.94
2023-03-07T20:21:49.745Z,99239.47
2023-03-07T20:24:18.236Z,99236.03
2023-03-07T20:26:47.287Z,99249.53
2023-03-07T20:29:15.080Z,99252.75
2023-03-07T20:31:42.746Z,99252.13
2023-03-07T20:34:11.990Z,99246.81
2023-03-07T20:36:39.850Z,99251.06
2023-03-07T20:39:14.308Z,99238.03
2023-03-07T20:41:43.045Z,99245.03
2023-03-07T20:44:13.421Z,99233.03
2023-03-07T20:46:41.667Z,99247.53
2023-03-07T20:49:12.718Z,99238.88
2023-03-07T20:51:41.165Z,99235.16
2023-03-07T20:54:12.940Z,99227.94
2023-03-07T20:56:41.951Z,99238.88
2023-03-07T20:59:13.021Z,99242.31
2023-03-07T21:01:41.285Z,99238.75
2023-03-07T21:04:11.441Z,99237.94
2023-03-07T21:06:40.592Z,99245.97
2023-03-07T21:09:11.653Z,99252.84
2023-03-07T21:11:44.789Z,99245.88
2023-03-07T21:14:12.845Z,99247.75
2023-03-07T21:16:40.824Z,99241.81
2023-03-07T21:19:08.967Z,99245.16
2023-03-07T21:21:37.298Z,99244.81
2023-03-07T21:24:06.411Z,99248.97
2023-03-07T21:26:37.094Z,99244.69
2023-03-07T21:29:05.848Z,99259.03
2023-03-07T21:31:35.392Z,99257.97
2023-03-07T21:34:04.984Z,99248.59
2023-03-07T21:36:32.863Z,99260.69
2023-03-07T21:39:00.998Z,99257.72
2023-03-07T21:41:28.785Z,99259.13
2023-03-07T21:43:59.133Z,99268.75
2023-03-07T21:46:27.132Z,99268.75
2023-03-07T21:48:55.089Z,99273.38
2023-03-07T21:51:22.953Z,99278.81
2023-03-07T21:53:50.832Z,99281.22
2023-03-07T21:56:18.828Z,99274.22
2023-03-07T21:58:49.166Z,99273.16
2023-03-07T22:01:20.755Z,99266.84
2023-03-07T22:03:48.894Z,99274.56
2023-03-07T22:06:17.223Z,99273.63
2023-03-07T22:08:45.018Z,99285.59
2023-03-07T22:11:13.793Z,99282.03
2023-03-07T22:13:42.573Z,99270.41
2023-03-07T22:16:13.270Z,99277.28
2023-03-07T22:18:42.480Z,99285.59
2023-03-07T22:21:13.485Z,99289.50
2023-03-07T22:23:41.676Z,99287.50
2023-03-07T22:26:11.369Z,99289.75
2023-03-07T22:28:40.589Z,99286.44
2023-03-07T22:31:11.063Z,99294.25
2023-03-07T22:33:39.138Z,99287.38
2023-03-07T22:36:11.820Z,99297.59
2023-03-07T22:38:40.078Z,99298.97
2023-03-07T22:41:09.759Z,99297.41
2023-03-07T22:43:38.187Z,99297.19
2023-03-07T22:46:07.113Z,99300.03
2023-03-07T22:48:35.433Z,99296.97
2023-03-07T22:51:03.656Z,99303.03
2023-03-07T22:53:33.736Z,99304.69
2023-03-07T22:56:01.926Z,99301.84
2023-03-07T22:58:30.500Z,99296.75
2023-03-07T23:00:58.322Z,99291.88
2023-03-07T23:03:26.661Z,99287.59
2023-03-07T23:05:59.896Z,99290.69
2023-03-07T23:08:27.660Z,99290.94
2023-03-07T23:11:02.872Z,99286.66
2023-03-07T23:13:30.670Z,99294.59
2023-03-07T23:15:58.893Z,99292.72
2023-03-07T23:18:26.831Z,99289.50
2023-03-07T23:20:54.794Z,99288.56
2023-03-07T23:23:22.509Z,99289.97
2023-03-07T23:25:50.267Z,99287.16
2023-03-07T23:28:19.492Z,99282.88
2023-03-07T23:30:47.293Z,99285.59
2023-03-07T23:33:15.161Z,99281.31
2023-03-07T23:35:42.966Z,99282.16
2023-03-07T23:38:12.931Z,99284.78
2023-03-07T23:40:41.147Z,99283.81
2023-03-07T23:43:12.853Z,99284.53
2023-03-07T23:45:42.137Z,99285.47
2023-03-07T23:48:09.932Z,99278.38
2023-03-07T23:50:37.672Z,99287.16
2023-03-07T23:53:05.372Z,99289.66
2023-03-07T23:55:33.147Z,99285.97
2023-03-07T23:58:00.885Z,99280.75
